createdAt,value
2023-05-26T00:01:16.389Z,29.25
2023-05-26T00:03:50.098Z,29.63
2023-05-26T00:06:17.257Z,33.28
2023-05-26T00:08:44.072Z,30.13
2023-05-26T00:11:10.954Z,31.20
2023-05-26T00:13:37.938Z,27.33
2023-05-26T00:16:05.083Z,28.92
2023-05-26T00:18:32.780Z,31.00
2023-05-26T00:20:59.720Z,37.78
2023-05-26T00:23:26.579Z,29.35
2023-05-26T00:25:53.820Z,31.50
2023-05-26T00:28:20.711Z,32.08
2023-05-26T00:30:47.620Z,31.20
2023-05-26T00:33:15.506Z,33.95
2023-05-26T00:35:42.295Z,29.30
2023-05-26T00:38:09.110Z,34.30
2023-05-26T00:40:36.397Z,32.13
2023-05-26T00:43:03.215Z,33.10
2023-05-26T00:45:30.269Z,31.95
2023-05-26T00:47:57.226Z,33.50
2023-05-26T00:50:24.155Z,32.05
2023-05-26T00:52:51.010Z,33.97
2023-05-26T00:55:18.276Z,29.10
2023-05-26T00:57:45.690Z,32.53
2023-05-26T01:00:14.180Z,28.30
2023-05-26T01:02:46.306Z,32.30
2023-05-26T01:05:16.761Z,29.58
2023-05-26T01:07:44.018Z,31.17
2023-05-26T01:10:11.252Z,28.48
2023-05-26T01:13:14.274Z,32.13
2023-05-26T01:18:18.093Z,30.88
2023-05-26T01:20:57.828Z,32.38
2023-05-26T01:24:03.553Z,29.55
2023-05-26T01:26:51.981Z,33.38
2023-05-26T01:29:23.925Z,33.28
2023-05-26T01:31:50.944Z,35.20
2023-05-26T01:34:17.906Z,28.98
2023-05-26T01:36:44.722Z,30.77
2023-05-26T01:39:12.138Z,26.42
2023-05-26T01:41:51.788Z,28.52
2023-05-26T01:44:40.715Z,27.98
2023-05-26T01:47:08.186Z,29.08
2023-05-26T01:49:35.756Z,32.95
2023-05-26T01:52:06.083Z,27.23
2023-05-26T01:54:38.559Z,28.33
2023-05-26T01:57:07.431Z,28.48
2023-05-26T01:59:34.905Z,33.10
2023-05-26T02:03:24.740Z,34.45
2023-05-26T02:05:51.774Z,32.83
2023-05-26T02:08:20.484Z,33.72
2023-05-26T02:10:47.363Z,33.13
2023-05-26T02:13:14.383Z,32.22
2023-05-26T02:15:41.886Z,32.97
2023-05-26T02:18:08.826Z,31.35
2023-05-26T02:20:36.068Z,31.40
2023-05-26T02:23:03.280Z,30.77
2023-05-26T02:25:30.161Z,33.88
2023-05-26T02:27:56.981Z,37.15
2023-05-26T02:30:23.882Z,33.88
2023-05-26T02:32:50.773Z,36.67
2023-05-26T02:35:17.690Z,29.48
2023-05-26T02:37:44.482Z,29.60
2023-05-26T02:40:11.704Z,31.25
2023-05-26T02:42:38.561Z,31.48
2023-05-26T02:45:06.271Z,32.55
2023-05-26T02:47:34.310Z,28.02
2023-05-26T02:50:01.227Z,30.75
2023-05-26T02:52:28.423Z,32.45
2023-05-26T02:54:55.313Z,31.38
2023-05-26T02:57:22.235Z,29.55
2023-05-26T02:59:49.413Z,32.67
2023-05-26T03:02:16.329Z,28.95
2023-05-26T03:04:43.169Z,29.85
2023-05-26T03:07:10.042Z,26.95
2023-05-26T03:09:39.131Z,31.50
2023-05-26T03:12:08.591Z,30.52
2023-05-26T03:14:36.109Z,30.90
2023-05-26T03:17:02.937Z,31.75
2023-05-26T03:19:29.813Z,31.70
2023-05-26T03:22:08.426Z,35.28
2023-05-26T03:24:44.744Z,32.05
2023-05-26T03:27:12.568Z,31.83
2023-05-26T03:29:39.409Z,34.03
2023-05-26T03:32:07.665Z,30.95
2023-05-26T03:34:40.175Z,29.08
2023-05-26T03:37:07.823Z,30.23
2023-05-26T03:39:35.058Z,27.67
2023-05-26T03:42:02.882Z,31.08
2023-05-26T03:44:32.869Z,28.30
2023-05-26T03:47:00.327Z,27.08
2023-05-26T03:49:27.366Z,30.00
2023-05-26T03:51:55.558Z,29.88
2023-05-26T03:54:22.475Z,31.23
2023-05-26T03:56:49.389Z,30.70
2023-05-26T03:59:18.560Z,29.85
2023-05-26T04:01:45.457Z,30.92
2023-05-26T04:04:12.307Z,31.20
2023-05-26T04:06:39.487Z,28.85
2023-05-26T04:09:06.997Z,28.58
2023-05-26T04:11:33.975Z,30.10
2023-05-26T04:14:00.913Z,30.48
2023-05-26T04:16:27.772Z,31.05
2023-05-26T04:18:56.726Z,31.58
2023-05-26T04:21:23.540Z,33.67
2023-05-26T04:23:52.622Z,33.95
2023-05-26T04:26:20.962Z,30.95
2023-05-26T04:28:53.345Z,30.20
2023-05-26T04:31:42.159Z,32.25
2023-05-26T04:34:35.794Z,31.65
2023-05-26T04:37:13.590Z,30.42
2023-05-26T04:39:40.596Z,30.52
2023-05-26T04:42:07.440Z,29.25
2023-05-26T04:44:34.543Z,27.90
2023-05-26T04:47:04.517Z,26.58
2023-05-26T04:49:31.437Z,32.92
2023-05-26T04:51:59.019Z,31.05
2023-05-26T04:54:26.238Z,30.75
2023-05-26T04:56:54.312Z,32.08
2023-05-26T04:59:24.354Z,31.77
2023-05-26T05:01:51.824Z,34.58
2023-05-26T05:04:33.875Z,34.17
2023-05-26T05:07:01.195Z,30.00
2023-05-26T05:09:28.237Z,34.78
2023-05-26T05:11:55.147Z,34.85
2023-05-26T05:14:23.214Z,34.85
2023-05-26T05:16:50.224Z,34.22
2023-05-26T05:19:17.096Z,33.08
2023-05-26T05:21:49.522Z,32.00
2023-05-26T05:24:16.644Z,34.53
2023-05-26T05:26:43.524Z,31.00
2023-05-26T05:29:11.561Z,31.27
2023-05-26T05:31:42.051Z,35.45
2023-05-26T05:34:09.520Z,33.42
2023-05-26T05:36:37.475Z,35.58
2023-05-26T05:39:04.535Z,35.95
2023-05-26T05:41:31.575Z,32.10
2023-05-26T05:43:58.616Z,33.03
2023-05-26T05:46:30.981Z,29.20
2023-05-26T05:49:00.378Z,33.20
2023-05-26T05:51:31.202Z,32.33
2023-05-26T05:53:58.154Z,33.53
2023-05-26T05:56:27.662Z,28.85
2023-05-26T05:58:55.029Z,28.88
2023-05-26T06:01:22.672Z,28.15
2023-05-26T06:03:51.004Z,31.13
2023-05-26T06:06:18.075Z,30.75
2023-05-26T06:08:44.931Z,31.25
2023-05-26T06:11:11.985Z,29.67
2023-05-26T06:13:43.123Z,32.08
2023-05-26T06:16:11.921Z,33.17
2023-05-26T06:18:38.743Z,32.33
2023-05-26T06:21:06.096Z,35.50
2023-05-26T06:23:33.816Z,32.70
2023-05-26T06:26:01.208Z,33.40
2023-05-26T06:28:28.061Z,32.72
2023-05-26T06:30:55.043Z,36.30
2023-05-26T06:33:35.649Z,31.15
2023-05-26T06:36:02.646Z,33.20
2023-05-26T06:38:29.632Z,32.75
2023-05-26T06:41:01.356Z,33.58
2023-05-26T06:43:28.767Z,36.47
2023-05-26T06:45:56.428Z,32.17
2023-05-26T06:48:23.597Z,34.63
2023-05-26T06:51:13.590Z,33.03
2023-05-26T06:53:41.385Z,34.65
2023-05-26T06:56:08.449Z,30.95
2023-05-26T06:58:37.198Z,31.50
2023-05-26T07:01:04.709Z,33.05
2023-05-26T07:03:35.244Z,31.02
2023-05-26T07:06:04.120Z,34.65
2023-05-26T07:08:34.599Z,32.47
2023-05-26T07:11:20.156Z,33.67
2023-05-26T07:13:53.452Z,31.48
2023-05-26T07:16:22.086Z,33.97
2023-05-26T07:18:49.255Z,29.15
2023-05-26T07:21:16.381Z,30.63
2023-05-26T07:23:44.873Z,32.33
2023-05-26T07:26:12.205Z,36.08
2023-05-26T07:28:39.062Z,33.15
2023-05-26T07:31:06.056Z,31.73
2023-05-26T07:33:36.257Z,31.00
2023-05-26T07:36:03.233Z,32.47
2023-05-26T07:38:31.373Z,30.92
2023-05-26T07:40:58.208Z,34.88
2023-05-26T07:43:25.134Z,31.75
2023-05-26T07:45:52.006Z,31.60
2023-05-26T07:48:21.598Z,32.05
2023-05-26T07:50:48.797Z,32.83
2023-05-26T07:53:15.735Z,30.65
2023-05-26T07:55:42.797Z,31.10
2023-05-26T07:58:11.270Z,29.48
2023-05-26T08:00:39.212Z,30.27
2023-05-26T08:03:06.492Z,30.80
2023-05-26T08:05:33.561Z,30.70
2023-05-26T08:08:00.572Z,30.30
2023-05-26T08:10:27.440Z,29.92
2023-05-26T08:12:54.608Z,27.13
2023-05-26T08:15:27.620Z,28.02
2023-05-26T08:17:54.570Z,28.40
2023-05-26T08:20:22.146Z,32.55
2023-05-26T08:22:49.245Z,29.88
2023-05-26T08:25:16.177Z,33.00
2023-05-26T08:27:42.989Z,29.92
2023-05-26T08:30:10.131Z,31.25
2023-05-26T08:32:36.996Z,31.35
2023-05-26T08:35:04.998Z,31.38
2023-05-26T08:37:32.034Z,28.60
2023-05-26T08:39:58.949Z,33.45
2023-05-26T08:42:34.176Z,32.50
2023-05-26T08:45:02.990Z,33.30
2023-05-26T08:47:32.759Z,30.65
2023-05-26T08:50:07.250Z,31.35
2023-05-26T08:52:34.469Z,33.95
2023-05-26T08:55:01.454Z,28.80
2023-05-26T08:57:31.588Z,26.17
2023-05-26T08:59:58.974Z,29.58
2023-05-26T09:02:26.205Z,33.75
2023-05-26T09:04:53.102Z,32.90
2023-05-26T09:09:49.897Z,29.50
2023-05-26T09:12:16.831Z,28.23
2023-05-26T09:14:44.287Z,31.08
2023-05-26T09:17:14.868Z,31.25
2023-05-26T09:19:41.916Z,29.38
2023-05-26T09:22:11.718Z,33.40
2023-05-26T09:24:50.053Z,30.30
2023-05-26T09:27:22.801Z,27.95
2023-05-26T09:29:59.306Z,29.38
2023-05-26T09:32:27.633Z,32.28
2023-05-26T09:35:02.420Z,27.85
2023-05-26T09:37:33.402Z,30.33
2023-05-26T09:40:11.738Z,28.83
2023-05-26T09:42:39.652Z,26.08
2023-05-26T09:45:06.851Z,29.02
2023-05-26T09:47:37.015Z,27.13
2023-05-26T09:50:08.027Z,28.42
2023-05-26T09:52:35.866Z,30.70
2023-05-26T09:55:04.264Z,28.88
2023-05-26T09:57:32.002Z,31.23
2023-05-26T10:00:01.590Z,27.08
2023-05-26T10:02:30.010Z,28.95
2023-05-26T10:04:57.919Z,29.15
2023-05-26T10:07:25.056Z,28.58
2023-05-26T10:09:59.501Z,27.08
2023-05-26T10:12:32.508Z,33.38
2023-05-26T10:15:00.533Z,28.42
2023-05-26T10:17:28.427Z,22.63
2023-05-26T10:19:58.880Z,23.90
2023-05-26T10:22:53.665Z,30.63
2023-05-26T10:25:57.929Z,26.60
2023-05-26T10:28:46.828Z,26.27
2023-05-26T10:31:29.962Z,26.77
2023-05-26T10:33:57.718Z,28.63
2023-05-26T10:36:24.824Z,28.38
2023-05-26T10:38:55.543Z,29.55
2023-05-26T10:41:41.627Z,28.65
2023-05-26T10:44:47.892Z,27.80
2023-05-26T10:47:16.976Z,25.02
2023-05-26T10:49:59.297Z,25.40
2023-05-26T10:52:27.599Z,26.85
2023-05-26T10:54:54.666Z,27.58
2023-05-26T10:57:33.435Z,23.73
2023-05-26T11:00:23.549Z,25.13
2023-05-26T11:02:50.552Z,26.77
2023-05-26T11:05:32.066Z,28.23
2023-05-26T11:08:00.327Z,27.38
2023-05-26T11:10:27.272Z,25.55
2023-05-26T11:12:58.828Z,28.38
2023-05-26T11:15:30.125Z,24.75
2023-05-26T11:18:01.495Z,25.10
2023-05-26T11:20:29.323Z,26.67
2023-05-26T11:22:57.696Z,28.33
2023-05-26T11:25:24.802Z,25.33
2023-05-26T11:27:51.728Z,25.80
2023-05-26T11:30:22.483Z,24.23
2023-05-26T11:32:52.111Z,25.27
2023-05-26T11:35:27.143Z,24.17
2023-05-26T11:37:54.772Z,25.27
2023-05-26T11:40:21.783Z,27.50
2023-05-26T11:42:56.393Z,26.08
2023-05-26T11:45:24.474Z,24.52
2023-05-26T11:47:51.654Z,24.83
2023-05-26T11:50:19.660Z,22.60
2023-05-26T11:52:51.353Z,27.02
2023-05-26T11:55:21.321Z,25.00
2023-05-26T11:57:49.315Z,23.00
2023-05-26T12:00:19.452Z,26.92
2023-05-26T12:02:48.253Z,24.35
2023-05-26T12:05:27.461Z,22.65
2023-05-26T12:08:07.389Z,25.60
2023-05-26T12:10:34.289Z,24.60
2023-05-26T12:13:01.710Z,25.77
2023-05-26T12:15:29.218Z,24.33
2023-05-26T12:17:58.118Z,25.05
2023-05-26T12:20:42.599Z,23.23
2023-05-26T12:23:12.889Z,21.13
2023-05-26T12:25:40.145Z,22.27
2023-05-26T12:28:07.160Z,22.77
2023-05-26T12:30:47.562Z,21.30
2023-05-26T12:33:16.021Z,23.47
2023-05-26T12:35:42.951Z,22.98
2023-05-26T12:38:13.956Z,27.13
2023-05-26T12:40:40.856Z,27.45
2023-05-26T12:43:07.692Z,23.42
2023-05-26T12:45:35.927Z,26.70
2023-05-26T12:48:03.552Z,27.13
2023-05-26T12:50:30.431Z,25.35
2023-05-26T12:52:57.197Z,24.58
2023-05-26T12:55:24.870Z,28.05
2023-05-26T12:57:51.815Z,24.08
2023-05-26T13:00:20.238Z,24.20
2023-05-26T13:02:47.310Z,26.73
2023-05-26T13:05:17.207Z,28.55
2023-05-26T13:07:44.122Z,26.20
2023-05-26T13:10:11.752Z,23.83
2023-05-26T13:12:42.302Z,27.77
2023-05-26T13:15:09.643Z,24.67
2023-05-26T13:17:36.448Z,23.05
2023-05-26T13:20:03.678Z,28.08
2023-05-26T13:22:31.247Z,22.25
2023-05-26T13:24:59.515Z,25.63
2023-05-26T13:27:26.250Z,25.13
2023-05-26T13:29:53.064Z,24.67
2023-05-26T13:32:19.917Z,25.25
2023-05-26T13:34:46.747Z,27.65
2023-05-26T13:37:13.480Z,24.80
2023-05-26T13:39:40.389Z,27.17
2023-05-26T13:42:07.277Z,23.33
2023-05-26T13:44:34.012Z,29.45
2023-05-26T13:47:00.798Z,22.65
2023-05-26T13:49:27.635Z,24.55
2023-05-26T13:51:54.394Z,23.27
2023-05-26T13:54:21.180Z,25.48
2023-05-26T13:56:48.009Z,21.15
2023-05-26T13:59:14.781Z,25.48
2023-05-26T14:01:41.827Z,24.83
2023-05-26T14:04:08.895Z,27.38
2023-05-26T14:06:37.340Z,21.98
2023-05-26T14:09:08.517Z,29.42
2023-05-26T14:11:35.501Z,25.70
2023-05-26T14:14:02.337Z,24.75
2023-05-26T14:16:29.419Z,25.35
2023-05-26T14:19:05.031Z,26.50
2023-05-26T14:22:01.211Z,23.77
2023-05-26T14:24:22.744Z,23.48
2023-05-26T14:26:49.651Z,23.77
2023-05-26T14:29:16.446Z,24.33
2023-05-26T14:31:43.325Z,25.17
2023-05-26T14:34:10.230Z,26.48
2023-05-26T14:36:37.573Z,23.92
2023-05-26T14:39:08.730Z,25.50
2023-05-26T14:41:35.787Z,25.90
2023-05-26T14:44:02.684Z,26.10
2023-05-26T14:46:29.626Z,25.98
2023-05-26T14:48:56.554Z,28.75
2023-05-26T14:51:25.364Z,26.00
2023-05-26T14:53:52.308Z,28.30
2023-05-26T14:56:19.449Z,28.52
2023-05-26T14:58:46.602Z,22.88
2023-05-26T15:01:13.603Z,25.08
2023-05-26T15:04:00.929Z,24.10
2023-05-26T15:06:31.444Z,23.73
2023-05-26T15:08:58.214Z,26.60
2023-05-26T15:11:25.395Z,24.90
2023-05-26T15:13:52.315Z,25.30
2023-05-26T15:16:19.135Z,26.25
2023-05-26T15:18:46.023Z,25.95
2023-05-26T15:21:12.786Z,26.83
2023-05-26T15:23:39.559Z,24.85
2023-05-26T15:26:06.406Z,26.15
2023-05-26T15:28:33.238Z,26.70
2023-05-26T15:31:00.190Z,24.80
2023-05-26T15:33:28.649Z,26.25
2023-05-26T15:35:56.969Z,24.23
2023-05-26T15:38:23.898Z,24.15
2023-05-26T15:40:51.152Z,27.52
2023-05-26T15:43:17.954Z,24.33
2023-05-26T15:45:44.770Z,25.25
2023-05-26T15:48:18.632Z,26.67
2023-05-26T15:50:45.910Z,24.52
2023-05-26T15:53:12.857Z,26.55
2023-05-26T15:55:39.592Z,24.75
2023-05-26T15:58:06.503Z,25.55
2023-05-26T16:00:33.523Z,26.02
2023-05-26T16:03:00.455Z,23.02
2023-05-26T16:05:27.357Z,20.90
2023-05-26T16:07:54.199Z,25.10
2023-05-26T16:10:21.068Z,27.63
2023-05-26T16:12:47.805Z,28.75
2023-05-26T16:15:15.793Z,23.10
2023-05-26T16:17:44.850Z,24.45
2023-05-26T16:20:12.362Z,24.73
2023-05-26T16:22:39.400Z,25.83
2023-05-26T16:25:06.896Z,23.85
2023-05-26T16:27:33.607Z,23.77
2023-05-26T16:30:00.387Z,23.15
2023-05-26T16:32:27.160Z,25.77
2023-05-26T16:34:54.066Z,21.77
2023-05-26T16:37:20.841Z,22.77
2023-05-26T16:39:47.779Z,21.60
2023-05-26T16:42:14.574Z,20.08
2023-05-26T16:44:41.608Z,22.73
2023-05-26T16:47:08.509Z,26.02
2023-05-26T16:49:35.553Z,26.20
2023-05-26T16:52:02.325Z,23.73
2023-05-26T16:54:29.085Z,24.52
2023-05-26T16:56:56.067Z,25.35
2023-05-26T16:59:23.093Z,21.83
2023-05-26T17:01:50.016Z,22.13
2023-05-26T17:04:16.911Z,21.40
2023-05-26T17:06:43.676Z,26.52
2023-05-26T17:09:10.699Z,25.15
2023-05-26T17:11:37.579Z,22.65
2023-05-26T17:14:04.400Z,21.02
2023-05-26T17:16:31.290Z,25.95
2023-05-26T17:18:58.235Z,22.33
2023-05-26T17:21:25.080Z,27.10
2023-05-26T17:23:52.114Z,21.75
2023-05-26T17:26:19.120Z,26.98
2023-05-26T17:28:45.946Z,25.15
2023-05-26T17:31:14.428Z,24.15
2023-05-26T17:33:42.157Z,23.38
2023-05-26T17:36:09.163Z,21.05
2023-05-26T17:38:38.413Z,22.92
2023-05-26T17:41:06.917Z,22.45
2023-05-26T17:43:34.684Z,24.38
2023-05-26T17:46:01.492Z,21.10
2023-05-26T17:48:29.306Z,23.15
2023-05-26T17:50:56.395Z,25.33
2023-05-26T17:53:23.343Z,25.08
2023-05-26T17:55:50.423Z,24.17
2023-05-26T17:58:17.458Z,25.08
2023-05-26T18:00:46.065Z,22.38
2023-05-26T18:03:13.525Z,25.95
2023-05-26T18:05:40.429Z,24.75
2023-05-26T18:08:07.337Z,23.73
2023-05-26T18:10:34.231Z,21.45
2023-05-26T18:13:01.077Z,22.08
2023-05-26T18:15:28.031Z,22.90
2023-05-26T18:17:54.959Z,25.30
2023-05-26T18:20:22.175Z,24.95
2023-05-26T18:22:53.815Z,23.98
2023-05-26T18:25:21.670Z,24.48
2023-05-26T18:27:51.618Z,24.77
2023-05-26T18:30:18.915Z,26.50
2023-05-26T18:32:46.481Z,27.42
2023-05-26T18:35:14.087Z,24.23
2023-05-26T18:37:41.355Z,24.60
2023-05-26T18:40:09.144Z,24.50
2023-05-26T18:42:40.459Z,31.20
2023-05-26T18:45:12.270Z,26.85
2023-05-26T18:47:40.908Z,24.73
2023-05-26T18:50:10.540Z,25.20
2023-05-26T18:52:40.957Z,25.35
2023-05-26T18:55:09.677Z,23.52
2023-05-26T18:57:36.644Z,23.15
2023-05-26T19:00:05.171Z,27.65
2023-05-26T19:02:32.198Z,24.05
2023-05-26T19:04:59.021Z,24.17
2023-05-26T19:07:25.858Z,23.98
2023-05-26T19:09:53.437Z,23.33
2023-05-26T19:12:20.355Z,23.27
2023-05-26T19:14:47.137Z,24.02
2023-05-26T19:17:13.913Z,23.70
2023-05-26T19:19:41.024Z,23.25
2023-05-26T19:22:07.877Z,25.63
2023-05-26T19:24:34.834Z,24.10
2023-05-26T19:27:02.049Z,23.77
2023-05-26T19:29:28.981Z,25.27
2023-05-26T19:31:56.110Z,24.60
2023-05-26T19:34:23.121Z,21.92
2023-05-26T19:36:49.962Z,23.40
2023-05-26T19:39:16.929Z,22.60
2023-05-26T19:41:47.985Z,21.52
2023-05-26T19:44:20.423Z,23.98
2023-05-26T19:46:48.087Z,26.75
2023-05-26T19:49:15.748Z,26.15
2023-05-26T19:51:42.610Z,25.35
2023-05-26T19:54:09.538Z,24.98
2023-05-26T19:56:38.352Z,22.77
2023-05-26T19:59:05.257Z,24.05
2023-05-26T20:01:32.112Z,27.30
2023-05-26T20:03:58.976Z,23.15
2023-05-26T20:06:26.192Z,24.42
2023-05-26T20:08:53.052Z,26.98
2023-05-26T20:11:20.563Z,26.67
2023-05-26T20:13:47.464Z,21.13
2023-05-26T20:16:15.804Z,21.63
2023-05-26T20:18:42.689Z,22.58
2023-05-26T20:21:09.774Z,22.95
2023-05-26T20:23:36.527Z,24.50
2023-05-26T20:26:04.358Z,25.90
2023-05-26T20:28:31.736Z,22.83
2023-05-26T20:31:01.888Z,28.25
2023-05-26T20:33:29.598Z,22.52
2023-05-26T20:35:56.529Z,25.02
2023-05-26T20:38:23.346Z,24.77
2023-05-26T20:40:50.159Z,23.70
2023-05-26T20:43:16.988Z,25.58
2023-05-26T20:45:44.107Z,23.85
2023-05-26T20:48:11.255Z,26.95
2023-05-26T20:50:38.068Z,23.55
2023-05-26T20:53:05.016Z,25.08
2023-05-26T20:55:35.134Z,27.48
2023-05-26T20:58:01.916Z,25.75
2023-05-26T21:00:28.959Z,23.92
2023-05-26T21:02:57.453Z,23.45
2023-05-26T21:05:24.450Z,26.05
2023-05-26T21:07:51.522Z,27.20
2023-05-26T21:10:18.372Z,24.98
2023-05-26T21:12:45.449Z,25.45
2023-05-26T21:15:12.296Z,23.67
2023-05-26T21:17:39.336Z,22.65
2023-05-26T21:20:07.255Z,24.55
2023-05-26T21:22:34.127Z,26.63
2023-05-26T21:25:01.232Z,24.83
2023-05-26T21:27:28.057Z,24.70
2023-05-26T21:29:55.010Z,24.00
2023-05-26T21:32:22.470Z,25.88
2023-05-26T21:34:49.198Z,26.00
2023-05-26T21:37:16.058Z,24.13
2023-05-26T21:39:43.118Z,24.95
2023-05-26T21:42:10.113Z,23.95
2023-05-26T21:44:37.503Z,21.38
2023-05-26T21:47:04.426Z,22.95
2023-05-26T21:49:31.524Z,23.05
2023-05-26T21:51:58.267Z,21.63
2023-05-26T21:54:25.384Z,23.08
2023-05-26T21:56:52.165Z,24.27
2023-05-26T21:59:19.066Z,25.63
2023-05-26T22:01:45.848Z,23.30
2023-05-26T22:04:12.670Z,23.45
2023-05-26T22:06:39.448Z,24.50
2023-05-26T22:09:06.448Z,25.98
2023-05-26T22:11:33.306Z,25.88
2023-05-26T22:14:10.193Z,23.98
2023-05-26T22:16:44.418Z,25.83
2023-05-26T22:19:11.414Z,25.15
2023-05-26T22:21:38.272Z,23.63
2023-05-26T22:24:05.677Z,28.20
2023-05-26T22:26:32.606Z,25.77
2023-05-26T22:28:59.350Z,28.30
2023-05-26T22:31:26.146Z,26.45
2023-05-26T22:33:53.047Z,24.65
2023-05-26T22:36:19.806Z,27.10
2023-05-26T22:38:46.543Z,27.83
2023-05-26T22:41:13.256Z,28.77
2023-05-26T22:43:39.962Z,32.50
2023-05-26T22:46:06.721Z,29.15
2023-05-26T22:48:33.465Z,28.27
2023-05-26T22:51:00.530Z,28.85
2023-05-26T22:53:27.261Z,28.15
2023-05-26T22:56:01.053Z,31.73
2023-05-26T22:58:39.996Z,29.02
2023-05-26T23:01:07.053Z,29.17
2023-05-26T23:03:34.298Z,29.60
2023-05-26T23:06:01.888Z,29.05
2023-05-26T23:08:29.038Z,25.67
2023-05-26T23:10:55.886Z,28.30
2023-05-26T23:13:22.788Z,27.80
2023-05-26T23:15:49.711Z,25.95
2023-05-26T23:18:16.537Z,27.63
2023-05-26T23:20:43.425Z,29.42
2023-05-26T23:23:10.329Z,24.38
2023-05-26T23:25:37.310Z,28.15
2023-05-26T23:28:04.465Z,25.15
2023-05-26T23:30:31.410Z,24.90
2023-05-26T23:32:58.806Z,26.52
2023-05-26T23:35:26.600Z,27.02
2023-05-26T23:37:53.530Z,23.92
2023-05-26T23:40:26.092Z,23.08
2023-05-26T23:45:56.464Z,22.88
2023-05-26T23:48:23.397Z,26.88
2023-05-26T23:50:50.207Z,25.48
2023-05-26T23:53:17.093Z,25.85
2023-05-26T23:55:43.904Z,27.20
2023-05-26T23:58:10.813Z,24.95
